createdAt,value
2019-02-15T00:00:25.788Z,2
2019-02-15T00:01:25.548Z,1.92
2019-02-15T00:02:25.517Z,1.92
2019-02-15T00:03:27.414Z,1.81
2019-02-15T00:04:25.494Z,1.89
2019-02-15T00:05:25.749Z,1.88
2019-02-15T00:06:25.473Z,1.92
2019-02-15T00:07:25.461Z,1.87
2019-02-15T00:08:25.205Z,1.89
2019-02-15T00:09:25.680Z,1.85
2019-02-15T00:10:25.431Z,1.81
2019-02-15T00:11:25.407Z,1.88
2019-02-15T00:12:25.404Z,1.87
2019-02-15T00:13:25.400Z,1.74
2019-02-15T00:14:25.393Z,1.84
2019-02-15T00:15:25.365Z,1.81
2019-02-15T00:16:25.351Z,1.76
2019-02-15T00:17:25.342Z,1.78
2019-02-15T00:18:25.603Z,1.73
2019-02-15T00:19:25.332Z,1.63
2019-02-15T00:20:25.626Z,1.62
2019-02-15T00:21:25.578Z,1.68
2019-02-15T00:22:25.563Z,1.58
2019-02-15T00:23:25.294Z,1.59
2019-02-15T00:24:25.511Z,1.58
2019-02-15T00:25:25.530Z,1.59
2019-02-15T00:26:25.517Z,1.7
2019-02-15T00:27:25.239Z,1.63
2019-02-15T00:28:25.486Z,1.76
2019-02-15T00:29:25.454Z,1.84
2019-02-15T00:30:25.207Z,1.77
2019-02-15T00:31:25.441Z,1.89
2019-02-15T00:32:25.427Z,1.85
2019-02-15T00:33:25.434Z,1.87
2019-02-15T00:34:25.393Z,1.88
2019-02-15T00:35:25.403Z,1.99
2019-02-15T00:36:25.381Z,2.1
2019-02-15T00:37:25.370Z,2.02
2019-02-15T00:38:25.113Z,2.07
2019-02-15T00:39:25.094Z,1.95
2019-02-15T00:40:25.091Z,2.04
2019-02-15T00:41:24.831Z,2.1
2019-02-15T00:42:25.063Z,2.08
2019-02-15T00:43:26.869Z,2.17
2019-02-15T00:44:25.302Z,2.17
2019-02-15T00:45:25.026Z,2.22
2019-02-15T00:46:25.018Z,2.11
2019-02-15T00:47:25.005Z,2.13
2019-02-15T00:48:25.251Z,2.1
2019-02-15T00:49:24.985Z,2.13
2019-02-15T00:50:25.214Z,2.11
2019-02-15T00:51:25.229Z,2.04
2019-02-15T00:52:24.954Z,1.95
2019-02-15T00:53:25.180Z,1.89
2019-02-15T00:54:25.181Z,1.81
2019-02-15T00:55:25.165Z,1.78
2019-02-15T00:56:25.173Z,1.77
2019-02-15T00:57:24.921Z,1.78
2019-02-15T00:58:24.882Z,1.63
2019-02-15T00:59:24.884Z,1.66
2019-02-15T01:00:25.103Z,1.68
2019-02-15T01:01:25.093Z,1.6
2019-02-15T01:02:25.078Z,1.73
2019-02-15T01:03:25.075Z,1.71
2019-02-15T01:04:25.073Z,1.73
2019-02-15T01:05:25.056Z,1.74
2019-02-15T01:06:24.804Z,1.68
2019-02-15T01:07:24.769Z,1.6
2019-02-15T01:08:25.007Z,1.63
2019-02-15T01:09:24.521Z,1.62
2019-02-15T01:10:24.754Z,1.59
2019-02-15T01:11:24.973Z,1.53
2019-02-15T01:12:24.725Z,1.58
2019-02-15T01:13:33.251Z,1.52
2019-02-15T01:14:24.944Z,1.55
2019-02-15T01:15:24.929Z,1.6
2019-02-15T01:16:24.959Z,1.58
2019-02-15T01:17:24.910Z,1.56
2019-02-15T01:18:24.901Z,1.63
2019-02-15T01:19:24.939Z,1.6
2019-02-15T01:20:24.871Z,1.66
2019-02-15T01:21:24.857Z,1.63
2019-02-15T01:22:24.599Z,1.73
2019-02-15T01:23:24.840Z,1.77
2019-02-15T01:24:24.817Z,1.68
2019-02-15T01:25:24.817Z,1.77
2019-02-15T01:26:24.579Z,1.74
2019-02-15T01:27:24.784Z,1.8
2019-02-15T01:28:24.789Z,1.88
2019-02-15T01:29:24.814Z,1.89
2019-02-15T01:30:24.754Z,1.88
2019-02-15T01:31:24.742Z,1.91
2019-02-15T01:32:24.735Z,1.95
2019-02-15T01:33:24.465Z,1.94
2019-02-15T01:34:27.654Z,1.91
2019-02-15T01:35:24.711Z,1.97
2019-02-15T01:36:24.681Z,1.95
2019-02-15T01:37:24.675Z,1.94
2019-02-15T01:38:24.650Z,1.95
2019-02-15T01:39:24.431Z,1.97
2019-02-15T01:40:24.659Z,1.88
2019-02-15T01:41:24.631Z,1.85
2019-02-15T01:42:24.384Z,1.8
2019-02-15T01:43:24.612Z,1.87
2019-02-15T01:44:24.586Z,1.74
2019-02-15T01:45:24.143Z,1.76
2019-02-15T01:46:24.578Z,1.8
2019-02-15T01:47:24.344Z,1.7
2019-02-15T01:48:24.558Z,1.74
2019-02-15T01:49:24.322Z,1.59
2019-02-15T01:50:24.277Z,1.58
2019-02-15T01:51:24.562Z,1.6
2019-02-15T01:52:24.520Z,1.58
2019-02-15T01:53:24.499Z,1.58
2019-02-15T01:54:24.240Z,1.59
2019-02-15T01:55:24.464Z,1.56
2019-02-15T01:56:24.463Z,1.48
2019-02-15T01:57:24.445Z,1.52
2019-02-15T01:58:24.436Z,1.62
2019-02-15T01:59:24.184Z,1.58
2019-02-15T02:00:24.181Z,1.53
2019-02-15T02:01:23.929Z,1.58
2019-02-15T02:02:23.893Z,1.58
2019-02-15T02:03:24.391Z,1.56
2019-02-15T02:04:24.367Z,1.58
2019-02-15T02:05:24.101Z,1.56
2019-02-15T02:06:24.345Z,1.53
2019-02-15T02:07:24.337Z,1.58
2019-02-15T02:08:24.312Z,1.68
2019-02-15T02:09:24.309Z,1.63
2019-02-15T02:10:24.042Z,1.63
2019-02-15T02:11:24.296Z,1.56
2019-02-15T02:12:24.268Z,1.63
2019-02-15T02:13:24.258Z,1.66
2019-02-15T02:14:24.015Z,1.67
2019-02-15T02:15:24.253Z,1.76
2019-02-15T02:16:24.258Z,1.78
2019-02-15T02:17:23.962Z,1.74
2019-02-15T02:18:24.218Z,1.77
2019-02-15T02:19:23.947Z,1.73
2019-02-15T02:20:23.946Z,1.85
2019-02-15T02:21:24.190Z,1.95
2019-02-15T02:22:24.159Z,2.06
2019-02-15T02:23:23.917Z,2.04
2019-02-15T02:24:24.143Z,2.08
2019-02-15T02:25:23.622Z,2.02
2019-02-15T02:26:23.873Z,2.07
2019-02-15T02:27:24.106Z,2.11
2019-02-15T02:28:24.105Z,2.11
2019-02-15T02:29:23.825Z,2.13
2019-02-15T02:30:24.185Z,2.11
2019-02-15T02:31:23.561Z,2.1
2019-02-15T02:32:23.833Z,2.06
2019-02-15T02:33:23.783Z,2.07
2019-02-15T02:34:24.027Z,2.08
2019-02-15T02:35:24.654Z,2.04
2019-02-15T02:36:23.995Z,2.1
2019-02-15T02:37:24.012Z,2.1
2019-02-15T02:38:23.961Z,2.1
2019-02-15T02:39:23.961Z,2.1
2019-02-15T02:40:23.949Z,2.15
2019-02-15T02:41:23.465Z,2.13
2019-02-15T02:42:23.673Z,2.1
2019-02-15T02:43:23.686Z,2.1
2019-02-15T02:44:23.927Z,2.08
2019-02-15T02:45:23.896Z,2.15
2019-02-15T02:46:23.625Z,2.13
2019-02-15T02:47:23.369Z,2.1
2019-02-15T02:48:23.607Z,2.1
2019-02-15T02:49:23.632Z,2.07
2019-02-15T02:50:23.835Z,2.15
2019-02-15T02:51:23.575Z,2.15
2019-02-15T02:52:23.799Z,2.14
2019-02-15T02:53:23.551Z,2.15
2019-02-15T02:54:23.547Z,2.07
2019-02-15T02:55:23.798Z,2.02
2019-02-15T02:56:23.510Z,2.02
2019-02-15T02:57:23.499Z,1.94
2019-02-15T02:58:23.751Z,2.06
2019-02-15T02:59:23.483Z,2.04
2019-02-15T03:00:32.882Z,2.06
2019-02-15T03:01:25.328Z,1.97
2019-02-15T03:02:23.221Z,2.07
2019-02-15T03:03:23.688Z,2.02
2019-02-15T03:04:23.678Z,1.94
2019-02-15T03:05:23.708Z,2.13
2019-02-15T03:06:23.990Z,2.15
2019-02-15T03:07:23.382Z,2.14
2019-02-15T03:08:23.657Z,2.08
2019-02-15T03:09:23.614Z,1.99
2019-02-15T03:10:23.492Z,1.99
2019-02-15T03:11:23.345Z,1.94
2019-02-15T03:12:23.568Z,1.97
2019-02-15T03:13:23.058Z,2
2019-02-15T03:14:23.312Z,2.02
2019-02-15T03:15:23.315Z,1.97
2019-02-15T03:16:23.521Z,2.02
2019-02-15T03:17:23.019Z,2.02
2019-02-15T03:18:23.253Z,2.04
2019-02-15T03:19:22.982Z,1.94
2019-02-15T03:20:33.499Z,2.04
2019-02-15T03:21:24.033Z,1.95
2019-02-15T03:22:23.451Z,1.87
2019-02-15T03:23:23.216Z,2.04
2019-02-15T03:24:23.435Z,2
2019-02-15T03:25:23.167Z,2.06
2019-02-15T03:26:23.413Z,2.07
2019-02-15T03:27:23.427Z,2.17
2019-02-15T03:28:23.382Z,2.08
2019-02-15T03:29:23.397Z,2.08
2019-02-15T03:30:23.165Z,2.14
2019-02-15T03:31:23.394Z,2.1
2019-02-15T03:32:23.425Z,2.11
2019-02-15T03:33:23.457Z,2.1
2019-02-15T03:34:23.439Z,2.06
2019-02-15T03:35:23.292Z,2
2019-02-15T03:36:24.391Z,2.08
2019-02-15T03:37:23.280Z,2.06
2019-02-15T03:38:23.275Z,2.06
2019-02-15T03:39:23.005Z,2.06
2019-02-15T03:40:23.285Z,1.99
2019-02-15T03:41:22.972Z,2.04
2019-02-15T03:42:23.041Z,1.95
2019-02-15T03:43:23.203Z,1.91
2019-02-15T03:44:27.104Z,2.08
2019-02-15T03:45:23.240Z,2.07
2019-02-15T03:46:23.177Z,2.06
2019-02-15T03:47:22.917Z,2.07
2019-02-15T03:48:22.662Z,2
2019-02-15T03:49:22.900Z,2.07
2019-02-15T03:50:23.164Z,2
2019-02-15T03:51:22.627Z,2.06
2019-02-15T03:52:23.180Z,1.99
2019-02-15T03:53:22.845Z,2
2019-02-15T03:54:22.826Z,1.95
2019-02-15T03:55:23.083Z,1.91
2019-02-15T03:56:23.115Z,2
2019-02-15T03:57:22.817Z,1.88
2019-02-15T03:58:22.798Z,1.85
2019-02-15T03:59:23.026Z,1.84
2019-02-15T04:00:23.010Z,1.91
2019-02-15T04:01:22.996Z,1.88
2019-02-15T04:02:22.996Z,1.87
2019-02-15T04:03:22.980Z,1.77
2019-02-15T04:04:22.726Z,1.76
2019-02-15T04:05:22.445Z,1.78
2019-02-15T04:06:22.950Z,1.78
2019-02-15T04:07:22.441Z,1.66
2019-02-15T04:08:22.667Z,1.74
2019-02-15T04:09:22.942Z,1.71
2019-02-15T04:10:22.713Z,1.68
2019-02-15T04:11:22.383Z,1.67
2019-02-15T04:12:22.372Z,1.6
2019-02-15T04:13:22.856Z,1.59
2019-02-15T04:14:32.238Z,1.5
2019-02-15T04:15:22.833Z,1.4
2019-02-15T04:16:22.860Z,1.49
2019-02-15T04:17:22.569Z,1.49
2019-02-15T04:18:22.589Z,1.44
2019-02-15T04:19:22.798Z,1.52
2019-02-15T04:20:22.273Z,1.4
2019-02-15T04:21:22.535Z,1.44
2019-02-15T04:22:22.772Z,1.44
2019-02-15T04:23:22.746Z,1.49
2019-02-15T04:24:22.488Z,1.48
2019-02-15T04:25:22.710Z,1.4
2019-02-15T04:26:22.726Z,1.37
2019-02-15T04:27:22.710Z,1.41
2019-02-15T04:28:22.697Z,1.32
2019-02-15T04:29:22.691Z,1.34
2019-02-15T04:30:22.444Z,1.38
2019-02-15T04:31:22.400Z,1.34
2019-02-15T04:32:22.673Z,1.34
2019-02-15T04:33:22.659Z,1.28
2019-02-15T04:34:22.128Z,1.37
2019-02-15T04:35:22.606Z,1.26
2019-02-15T04:36:22.361Z,1.24
2019-02-15T04:37:22.574Z,1.17
2019-02-15T04:38:22.574Z,1.24
2019-02-15T04:39:22.303Z,1.24
2019-02-15T04:40:22.550Z,1.23
2019-02-15T04:41:22.538Z,1.22
2019-02-15T04:42:22.043Z,1.2
2019-02-15T04:43:22.554Z,1.1
2019-02-15T04:44:21.989Z,1.19
2019-02-15T04:45:22.530Z,1.2
2019-02-15T04:46:21.975Z,1.16
2019-02-15T04:47:22.484Z,1.22
2019-02-15T04:48:22.191Z,1.23
2019-02-15T04:49:22.178Z,1.23
2019-02-15T04:50:22.464Z,1.23
2019-02-15T04:51:22.397Z,1.28
2019-02-15T04:52:22.389Z,1.17
2019-02-15T04:53:22.145Z,1.19
2019-02-15T04:54:22.349Z,1.31
2019-02-15T04:55:22.342Z,1.34
2019-02-15T04:56:22.338Z,1.32
2019-02-15T04:57:22.060Z,1.34
2019-02-15T04:58:22.370Z,1.31
2019-02-15T04:59:22.050Z,1.32
2019-02-15T05:00:22.298Z,1.28
2019-02-15T05:01:21.796Z,1.38
2019-02-15T05:02:22.268Z,1.32
2019-02-15T05:03:24.145Z,1.38
2019-02-15T05:04:21.982Z,1.26
2019-02-15T05:05:22.226Z,1.34
2019-02-15T05:06:22.214Z,1.35
2019-02-15T05:07:21.939Z,1.28
2019-02-15T05:08:21.939Z,1.24
2019-02-15T05:09:23.727Z,1.32
2019-02-15T05:10:21.662Z,1.31
2019-02-15T05:11:21.666Z,1.2
2019-02-15T05:12:21.914Z,1.34
2019-02-15T05:13:22.154Z,1.4
2019-02-15T05:14:22.112Z,1.41
2019-02-15T05:15:22.178Z,1.26
2019-02-15T05:16:22.079Z,1.35
2019-02-15T05:17:22.679Z,1.38
2019-02-15T05:18:21.826Z,1.35
2019-02-15T05:19:22.096Z,1.37
2019-02-15T05:20:22.051Z,1.26
2019-02-15T05:21:22.019Z,1.35
2019-02-15T05:22:22.104Z,1.31
2019-02-15T05:23:21.746Z,1.38
2019-02-15T05:24:22.006Z,1.35
2019-02-15T05:25:21.994Z,1.35
2019-02-15T05:26:21.475Z,1.22
2019-02-15T05:27:22.002Z,1.3
2019-02-15T05:28:21.446Z,1.34
2019-02-15T05:29:21.919Z,1.22
2019-02-15T05:30:22.255Z,1.22
2019-02-15T05:31:21.650Z,1.22
2019-02-15T05:32:21.640Z,1.3
2019-02-15T05:33:21.897Z,1.19
2019-02-15T05:34:21.364Z,1.19
2019-02-15T05:35:21.639Z,1.26
2019-02-15T05:36:21.342Z,1.35
2019-02-15T05:37:21.893Z,1.37
2019-02-15T05:38:21.881Z,1.38
2019-02-15T05:39:21.586Z,1.4
2019-02-15T05:40:21.803Z,1.45
2019-02-15T05:41:21.800Z,1.42
2019-02-15T05:42:21.271Z,1.49
2019-02-15T05:43:21.760Z,1.44
2019-02-15T05:44:21.742Z,1.44
2019-02-15T05:45:21.268Z,1.44
2019-02-15T05:46:21.745Z,1.49
2019-02-15T05:47:21.454Z,1.53
2019-02-15T05:48:21.465Z,1.5
2019-02-15T05:49:21.436Z,1.5
2019-02-15T05:50:21.746Z,1.55
2019-02-15T05:51:21.716Z,1.45
2019-02-15T05:52:21.415Z,1.52
2019-02-15T05:53:21.634Z,1.4
2019-02-15T05:54:21.620Z,1.45
2019-02-15T05:55:21.423Z,1.44
2019-02-15T05:56:21.619Z,1.48
2019-02-15T05:57:21.373Z,1.45
2019-02-15T05:58:21.575Z,1.45
2019-02-15T05:59:21.579Z,1.49
2019-02-15T06:00:21.306Z,1.42
2019-02-15T06:01:21.540Z,1.41
2019-02-15T06:02:21.535Z,1.38
2019-02-15T06:03:21.013Z,1.31
2019-02-15T06:04:21.284Z,1.32
2019-02-15T06:05:21.496Z,1.26
2019-02-15T06:06:21.229Z,1.24
2019-02-15T06:07:20.979Z,1.35
2019-02-15T06:08:20.962Z,1.32
2019-02-15T06:09:21.484Z,1.4
2019-02-15T06:10:21.214Z,1.3
2019-02-15T06:11:21.431Z,1.37
2019-02-15T06:12:21.400Z,1.4
2019-02-15T06:13:21.390Z,1.3
2019-02-15T06:14:21.254Z,1.2
2019-02-15T06:15:21.409Z,1.3
2019-02-15T06:16:20.852Z,1.22
2019-02-15T06:17:21.089Z,1.23
2019-02-15T06:18:21.346Z,1.17
2019-02-15T06:19:21.316Z,1.22
2019-02-15T06:20:20.816Z,1.23
2019-02-15T06:21:21.051Z,1.23
2019-02-15T06:22:21.059Z,1.17
2019-02-15T06:23:21.263Z,1.24
2019-02-15T06:24:21.278Z,1.17
2019-02-15T06:25:21.343Z,1.14
2019-02-15T06:26:21.260Z,1.19
2019-02-15T06:27:20.965Z,1.23
2019-02-15T06:28:21.204Z,1.31
2019-02-15T06:29:21.226Z,1.35
2019-02-15T06:30:21.187Z,1.37
2019-02-15T06:31:21.173Z,1.44
2019-02-15T06:32:20.921Z,1.37
2019-02-15T06:33:21.156Z,1.31
2019-02-15T06:34:20.879Z,1.45
2019-02-15T06:35:20.660Z,1.32
2019-02-15T06:36:20.872Z,1.4
2019-02-15T06:37:20.848Z,1.4
2019-02-15T06:38:20.866Z,1.42
2019-02-15T06:39:20.824Z,1.31
2019-02-15T06:40:20.852Z,1.44
2019-02-15T06:41:20.590Z,1.4
2019-02-15T06:42:20.783Z,1.4
2019-02-15T06:43:21.065Z,1.38
2019-02-15T06:44:21.080Z,1.41
2019-02-15T06:45:28.883Z,1.41
2019-02-15T06:46:20.767Z,1.4
2019-02-15T06:47:20.978Z,1.38
2019-02-15T06:48:20.716Z,1.35
2019-02-15T06:49:20.699Z,1.41
2019-02-15T06:50:20.923Z,1.37
2019-02-15T06:51:20.681Z,1.4
2019-02-15T06:52:20.920Z,1.42
2019-02-15T06:53:20.651Z,1.4
2019-02-15T06:54:20.656Z,1.42
2019-02-15T06:55:20.434Z,1.41
2019-02-15T06:56:20.364Z,1.44
2019-02-15T06:57:20.846Z,1.48
2019-02-15T06:58:20.589Z,1.44
2019-02-15T06:59:20.825Z,1.44
2019-02-15T07:00:20.870Z,1.4
2019-02-15T07:01:20.801Z,1.42
2019-02-15T07:02:20.542Z,1.44
2019-02-15T07:03:20.768Z,1.42
2019-02-15T07:04:20.267Z,1.4
2019-02-15T07:05:20.676Z,1.4
2019-02-15T07:06:20.733Z,1.45
2019-02-15T07:07:20.733Z,1.49
2019-02-15T07:08:22.625Z,1.55
2019-02-15T07:09:20.694Z,1.52
2019-02-15T07:10:20.479Z,1.53
2019-02-15T07:11:20.688Z,1.58
2019-02-15T07:12:20.191Z,1.6
2019-02-15T07:13:20.446Z,1.56
2019-02-15T07:14:21.004Z,1.62
2019-02-15T07:15:20.505Z,1.56
2019-02-15T07:16:20.392Z,1.56
2019-02-15T07:17:20.618Z,1.6
2019-02-15T07:18:20.358Z,1.58
2019-02-15T07:19:20.591Z,1.62
2019-02-15T07:20:20.367Z,1.59
2019-02-15T07:21:20.307Z,1.73
2019-02-15T07:22:20.341Z,1.76
2019-02-15T07:23:20.537Z,1.74
2019-02-15T07:24:20.094Z,1.74
2019-02-15T07:25:20.527Z,1.88
2019-02-15T07:26:20.518Z,1.87
2019-02-15T07:27:20.498Z,2.07
2019-02-15T07:28:20.474Z,2.38
2019-02-15T07:29:20.468Z,2.97
2019-02-15T07:30:20.106Z,3.59
2019-02-15T07:31:20.500Z,4.16
2019-02-15T07:32:20.435Z,4.74
2019-02-15T07:33:20.433Z,5.29
2019-02-15T07:34:20.458Z,5.82
2019-02-15T07:35:20.458Z,6.33
2019-02-15T07:36:20.434Z,6.69
2019-02-15T07:37:20.400Z,7.13
2019-02-15T07:38:23.656Z,7.51
2019-02-15T07:39:20.126Z,7.85
2019-02-15T07:40:20.412Z,7.9
2019-02-15T07:41:20.373Z,7.94
2019-02-15T07:42:21.200Z,8.23
2019-02-15T07:43:20.085Z,8.38
2019-02-15T07:44:20.109Z,8.58
2019-02-15T07:45:22.766Z,8.82
2019-02-15T07:46:20.103Z,9.16
2019-02-15T07:47:20.063Z,9.36
2019-02-15T07:48:20.070Z,9.55
2019-02-15T07:49:29.008Z,9.72
2019-02-15T07:50:20.070Z,9.66
2019-02-15T07:51:20.311Z,9.62
2019-02-15T07:52:20.289Z,9.56
2019-02-15T07:53:20.314Z,9.44
2019-02-15T07:54:20.312Z,9.36
2019-02-15T07:55:20.066Z,9.1
2019-02-15T07:56:20.312Z,8.74
2019-02-15T07:57:20.021Z,8.53
2019-02-15T07:58:20.016Z,8.41
2019-02-15T07:59:20.299Z,8.28
2019-02-15T08:00:20.274Z,8
2019-02-15T08:01:20.267Z,7.6
2019-02-15T08:02:20.012Z,7.1
2019-02-15T08:03:19.998Z,6.72
2019-02-15T08:04:19.995Z,6.12
2019-02-15T08:05:20.072Z,5.64
2019-02-15T08:06:19.985Z,5.36
2019-02-15T08:07:20.009Z,4.99
2019-02-15T08:08:20.035Z,4.74
2019-02-15T08:09:19.968Z,4.49
2019-02-15T08:10:20.321Z,4.26
2019-02-15T08:11:20.015Z,4.19
2019-02-15T08:12:20.219Z,4.08
2019-02-15T08:13:19.958Z,4.04
2019-02-15T08:14:22.420Z,4.28
2019-02-15T08:15:19.781Z,4.67
2019-02-15T08:16:20.175Z,5.23
2019-02-15T08:17:19.931Z,5.89
2019-02-15T08:18:19.915Z,6.62
2019-02-15T08:19:21.225Z,7.11
2019-02-15T08:20:19.694Z,7.72
2019-02-15T08:21:19.940Z,8.28
2019-02-15T08:22:19.882Z,8.56
2019-02-15T08:23:19.632Z,8.76
2019-02-15T08:24:20.108Z,8.79
2019-02-15T08:25:20.187Z,8.91
2019-02-15T08:26:19.609Z,9.03
2019-02-15T08:27:19.854Z,9.04
2019-02-15T08:28:20.093Z,9.06
2019-02-15T08:29:20.885Z,8.99
2019-02-15T08:30:21.915Z,9.13
2019-02-15T08:31:20.174Z,9.22
2019-02-15T08:32:19.814Z,9.14
2019-02-15T08:33:20.072Z,9.48
2019-02-15T08:34:20.058Z,9.46
2019-02-15T08:35:19.805Z,9.62
2019-02-15T08:36:19.799Z,9.74
2019-02-15T08:37:20.048Z,9.87
2019-02-15T08:38:20.055Z,9.68
2019-02-15T08:39:20.855Z,9.26
2019-02-15T08:40:19.783Z,8.79
2019-02-15T08:41:19.804Z,8.3
2019-02-15T08:42:20.041Z,7.82
2019-02-15T08:43:20.024Z,7.33
2019-02-15T08:44:19.779Z,6.89
2019-02-15T08:45:20.106Z,6.6
2019-02-15T08:46:20.027Z,6.26
2019-02-15T08:47:19.532Z,6.01
2019-02-15T08:48:19.768Z,5.72
2019-02-15T08:49:19.768Z,5.54
2019-02-15T08:50:20.082Z,5.43
2019-02-15T08:51:19.530Z,5.41
2019-02-15T08:52:20.060Z,5.25
2019-02-15T08:53:19.762Z,5.14
2019-02-15T08:54:19.490Z,5.17
2019-02-15T08:55:19.996Z,5.05
2019-02-15T08:56:19.726Z,5.02
2019-02-15T08:57:19.988Z,4.97
2019-02-15T08:58:19.987Z,4.78
2019-02-15T08:59:19.693Z,4.87
2019-02-15T09:00:19.736Z,4.86
2019-02-15T09:01:19.732Z,4.8
2019-02-15T09:02:19.932Z,4.82
2019-02-15T09:03:21.869Z,4.84
2019-02-15T09:04:19.981Z,4.77
2019-02-15T09:05:19.965Z,4.9
2019-02-15T09:06:19.909Z,4.87
2019-02-15T09:07:19.405Z,4.9
2019-02-15T09:08:19.629Z,4.96
2019-02-15T09:09:20.131Z,4.93
2019-02-15T09:10:19.435Z,4.97
2019-02-15T09:11:19.608Z,5
2019-02-15T09:12:19.840Z,5.05
2019-02-15T09:13:19.583Z,5.1
2019-02-15T09:14:19.591Z,5.14
2019-02-15T09:15:19.939Z,5.14
2019-02-15T09:16:19.820Z,5.21
2019-02-15T09:17:19.805Z,5.25
2019-02-15T09:18:19.825Z,5.28
2019-02-15T09:19:19.782Z,5.36
2019-02-15T09:20:19.880Z,5.47
2019-02-15T09:21:19.514Z,5.48
2019-02-15T09:22:19.517Z,5.59
2019-02-15T09:23:19.507Z,5.68
2019-02-15T09:24:19.239Z,5.82
2019-02-15T09:25:19.334Z,5.84
2019-02-15T09:26:22.687Z,5.91
2019-02-15T09:27:19.474Z,5.94
2019-02-15T09:28:19.707Z,6.09
2019-02-15T09:29:19.733Z,6.12
2019-02-15T09:30:19.824Z,6.2
2019-02-15T09:31:19.474Z,6.2
2019-02-15T09:32:19.678Z,6.33
2019-02-15T09:33:19.192Z,6.45
2019-02-15T09:34:19.214Z,6.48
2019-02-15T09:35:19.480Z,6.49
2019-02-15T09:36:19.280Z,6.49
2019-02-15T09:37:19.133Z,6.51
2019-02-15T09:38:19.636Z,6.66
2019-02-15T09:39:19.617Z,6.67
2019-02-15T09:40:19.687Z,6.72
2019-02-15T09:41:19.620Z,6.84
2019-02-15T09:42:19.375Z,6.77
2019-02-15T09:43:19.350Z,6.89
2019-02-15T09:44:19.357Z,6.85
2019-02-15T09:45:19.621Z,6.93
2019-02-15T09:46:24.777Z,6.92
2019-02-15T09:47:19.550Z,6.99
2019-02-15T09:48:19.092Z,7.02
2019-02-15T09:49:20.389Z,7.07
2019-02-15T09:50:19.601Z,7.15
2019-02-15T09:51:19.540Z,7.18
2019-02-15T09:52:19.524Z,7.2
2019-02-15T09:53:19.265Z,7.32
2019-02-15T09:54:19.264Z,7.39
2019-02-15T09:55:19.542Z,7.4
2019-02-15T09:56:19.246Z,7.48
2019-02-15T09:57:19.503Z,7.56
2019-02-15T09:58:21.320Z,7.63
2019-02-15T09:59:19.480Z,7.66
2019-02-15T10:00:19.620Z,7.72
2019-02-15T10:01:19.472Z,7.8
2019-02-15T10:02:19.203Z,7.79
2019-02-15T10:03:19.207Z,7.91
2019-02-15T10:04:19.462Z,7.9
2019-02-15T10:05:19.522Z,7.9
2019-02-15T10:06:19.180Z,7.97
2019-02-15T10:07:19.412Z,7.97
2019-02-15T10:08:18.961Z,7.87
2019-02-15T10:09:19.408Z,8.01
2019-02-15T10:10:19.584Z,8.03
2019-02-15T10:11:18.895Z,8.01
2019-02-15T10:12:19.140Z,8.06
2019-02-15T10:13:19.134Z,8.08
2019-02-15T10:14:19.122Z,8.15
2019-02-15T10:15:19.404Z,8.15
2019-02-15T10:16:19.100Z,8.23
2019-02-15T10:17:19.344Z,8.26
2019-02-15T10:18:19.091Z,8.34
2019-02-15T10:19:27.219Z,8.45
2019-02-15T10:20:19.214Z,8.38
2019-02-15T10:21:19.317Z,8.55
2019-02-15T10:22:19.078Z,8.61
2019-02-15T10:23:19.336Z,8.63
2019-02-15T10:24:19.338Z,8.7
2019-02-15T10:25:19.122Z,8.69
2019-02-15T10:26:19.280Z,8.82
2019-02-15T10:27:19.278Z,8.88
2019-02-15T10:28:19.306Z,8.97
2019-02-15T10:29:18.774Z,9.02
2019-02-15T10:30:18.857Z,9.11
2019-02-15T10:31:19.258Z,9.13
2019-02-15T10:32:19.021Z,9.13
2019-02-15T10:33:19.247Z,9.18
2019-02-15T10:34:19.248Z,9.21
2019-02-15T10:35:19.318Z,9.36
2019-02-15T10:36:21.350Z,9.37
2019-02-15T10:37:18.979Z,9.37
2019-02-15T10:38:18.984Z,9.43
2019-02-15T10:39:18.969Z,9.54
2019-02-15T10:40:19.204Z,9.51
2019-02-15T10:41:18.963Z,9.58
2019-02-15T10:42:19.216Z,9.54
2019-02-15T10:43:19.224Z,9.56
2019-02-15T10:44:19.281Z,9.65
2019-02-15T10:45:19.101Z,9.66
2019-02-15T10:46:18.958Z,9.77
2019-02-15T10:47:29.226Z,9.8
2019-02-15T10:48:18.921Z,9.83
2019-02-15T10:49:18.960Z,9.84
2019-02-15T10:50:18.980Z,9.87
2019-02-15T10:51:18.911Z,9.89
2019-02-15T10:52:18.951Z,9.99
2019-02-15T10:53:19.162Z,9.99
2019-02-15T10:54:19.142Z,10.04
2019-02-15T10:55:19.280Z,10.12
2019-02-15T10:56:19.133Z,10.05
2019-02-15T10:57:18.878Z,10.13
2019-02-15T10:58:19.158Z,10.15
2019-02-15T10:59:18.866Z,10.23
2019-02-15T11:00:19.183Z,10.16
2019-02-15T11:01:18.854Z,10.23
2019-02-15T11:02:19.155Z,10.3
2019-02-15T11:03:19.096Z,10.28
2019-02-15T11:04:19.110Z,10.35
2019-02-15T11:05:18.863Z,10.49
2019-02-15T11:06:18.865Z,10.46
2019-02-15T11:07:19.076Z,10.53
2019-02-15T11:08:18.829Z,10.53
2019-02-15T11:09:18.804Z,10.53
2019-02-15T11:10:18.809Z,10.61
2019-02-15T11:11:19.057Z,10.71
2019-02-15T11:12:19.076Z,10.78
2019-02-15T11:13:19.066Z,10.79
2019-02-15T11:14:19.101Z,10.84
2019-02-15T11:15:19.115Z,10.9
2019-02-15T11:16:19.037Z,10.93
2019-02-15T11:17:19.024Z,10.92
2019-02-15T11:18:18.765Z,10.99
2019-02-15T11:19:19.004Z,11.05
2019-02-15T11:20:18.570Z,11.15
2019-02-15T11:21:18.756Z,11.14
2019-02-15T11:22:18.749Z,11.17
2019-02-15T11:23:18.743Z,11.19
2019-02-15T11:24:18.748Z,11.33
2019-02-15T11:25:19.047Z,11.33
2019-02-15T11:26:27.196Z,11.35
2019-02-15T11:27:18.955Z,11.37
2019-02-15T11:28:18.727Z,11.36
2019-02-15T11:29:18.738Z,11.3
2019-02-15T11:30:18.732Z,11.44
2019-02-15T11:31:19.506Z,11.37
2019-02-15T11:32:18.700Z,11.35
2019-02-15T11:33:18.438Z,11.41
2019-02-15T11:34:18.692Z,11.52
2019-02-15T11:35:18.776Z,11.54
2019-02-15T11:36:18.687Z,11.6
2019-02-15T11:37:18.675Z,11.65
2019-02-15T11:38:18.668Z,11.65
2019-02-15T11:39:18.662Z,11.7
2019-02-15T11:40:18.831Z,11.68
2019-02-15T11:41:18.659Z,11.77
2019-02-15T11:42:18.406Z,11.77
2019-02-15T11:43:20.001Z,11.81
2019-02-15T11:44:18.692Z,11.9
2019-02-15T11:45:18.684Z,11.94
2019-02-15T11:46:18.646Z,12
2019-02-15T11:47:18.889Z,12.04
2019-02-15T11:48:18.912Z,12.06
2019-02-15T11:49:18.648Z,12.09
2019-02-15T11:50:18.697Z,12.17
2019-02-15T11:51:18.898Z,12.24
2019-02-15T11:52:18.620Z,12.21
2019-02-15T11:53:18.856Z,12.35
2019-02-15T11:54:28.082Z,12.29
2019-02-15T11:55:18.869Z,12.39
2019-02-15T11:56:18.613Z,12.45
2019-02-15T11:57:18.845Z,12.49
2019-02-15T11:58:18.841Z,12.54
2019-02-15T11:59:18.848Z,12.6
2019-02-15T12:00:23.101Z,12.68
2019-02-15T12:01:18.581Z,12.68
2019-02-15T12:02:18.331Z,12.78
2019-02-15T12:03:18.826Z,12.83
2019-02-15T12:04:18.575Z,12.9
2019-02-15T12:05:18.663Z,12.91
2019-02-15T12:06:18.310Z,12.98
2019-02-15T12:07:18.814Z,13.05
2019-02-15T12:08:18.581Z,13.16
2019-02-15T12:09:18.805Z,13.27
2019-02-15T12:10:21.302Z,13.28
2019-02-15T12:11:18.798Z,13.39
2019-02-15T12:12:18.834Z,13.47
2019-02-15T12:13:18.819Z,13.5
2019-02-15T12:14:18.529Z,13.52
2019-02-15T12:15:18.839Z,13.56
2019-02-15T12:16:18.529Z,13.67
2019-02-15T12:17:18.553Z,13.62
2019-02-15T12:18:18.522Z,13.7
2019-02-15T12:19:18.524Z,13.65
2019-02-15T12:20:18.821Z,13.65
2019-02-15T12:21:18.531Z,13.7
2019-02-15T12:22:18.751Z,13.65
2019-02-15T12:23:18.273Z,13.7
2019-02-15T12:24:18.528Z,13.65
2019-02-15T12:25:18.546Z,13.74
2019-02-15T12:26:18.744Z,13.81
2019-02-15T12:27:18.748Z,13.83
2019-02-15T12:28:18.259Z,13.85
2019-02-15T12:29:18.743Z,13.85
2019-02-15T12:30:18.828Z,13.97
2019-02-15T12:31:18.732Z,13.89
2019-02-15T12:32:18.732Z,13.92
2019-02-15T12:33:18.489Z,13.75
2019-02-15T12:34:18.520Z,13.74
2019-02-15T12:35:18.569Z,13.68
2019-02-15T12:36:18.519Z,13.72
2019-02-15T12:37:18.727Z,13.79
2019-02-15T12:38:18.468Z,13.79
2019-02-15T12:39:19.252Z,13.79
2019-02-15T12:40:18.756Z,13.81
2019-02-15T12:41:18.701Z,13.93
2019-02-15T12:42:18.462Z,13.97
2019-02-15T12:43:18.460Z,14.08
2019-02-15T12:44:18.471Z,14.22
2019-02-15T12:45:18.711Z,14.15
2019-02-15T12:46:18.715Z,14.22
2019-02-15T12:47:19.932Z,14.36
2019-02-15T12:48:18.697Z,14.35
2019-02-15T12:49:18.703Z,14.35
2019-02-15T12:50:18.537Z,14.29
2019-02-15T12:51:18.698Z,14.3
2019-02-15T12:52:18.450Z,14.35
2019-02-15T12:53:18.703Z,14.36
2019-02-15T12:54:18.690Z,14.37
2019-02-15T12:55:18.741Z,14.44
2019-02-15T12:56:18.425Z,14.51
2019-02-15T12:57:18.185Z,14.47
2019-02-15T12:58:18.206Z,14.66
2019-02-15T12:59:18.417Z,14.65
2019-02-15T13:00:18.430Z,14.66
2019-02-15T13:01:18.182Z,14.63
2019-02-15T13:02:18.444Z,14.65
2019-02-15T13:03:18.663Z,14.65
2019-02-15T13:04:18.419Z,14.54
2019-02-15T13:05:18.484Z,14.68
2019-02-15T13:06:18.654Z,14.65
2019-02-15T13:07:18.402Z,14.66
2019-02-15T13:08:18.406Z,14.77
2019-02-15T13:09:18.656Z,14.7
2019-02-15T13:10:18.444Z,14.73
2019-02-15T13:11:19.207Z,14.65
2019-02-15T13:12:18.650Z,14.72
2019-02-15T13:13:18.384Z,14.62
2019-02-15T13:14:18.646Z,14.65
2019-02-15T13:15:18.767Z,14.68
2019-02-15T13:16:18.386Z,14.69
2019-02-15T13:17:27.142Z,14.86